Time;durP1;ratioP1;P1;durP2;ratioP2;P2;SDS_P1;SDS_P2;PMS_P1;PMS_P2;Temp;Humidity;BMP_temperature;BMP_pressure;BME280_temperature;BME280_humidity;BME280_pressure;Samples;Min_cycle;Max_cycle;Signal;HPM_P1;HPM_P2
2023/09/25 00:00:34;;;;;;;4.00;3.70;;;12.90;99.90;;;;;;5057172;28;20459;-67
2023/09/25 00:03:04;;;;;;;4.30;4.00;;;12.80;99.90;;;;;;5055267;28;20956;-67
2023/09/25 00:05:33;;;;;;;5.00;3.60;;;12.80;99.90;;;;;;5051108;28;20486;-67
2023/09/25 00:08:01;;;;;;;3.90;3.53;;;12.80;99.90;;;;;;5055849;28;20569;-67
2023/09/25 00:10:31;;;;;;;4.10;3.70;;;12.80;99.90;;;;;;5053197;28;20493;-67
2023/09/25 00:12:59;;;;;;;3.57;3.27;;;12.80;99.90;;;;;;5052640;28;20480;-67
2023/09/25 00:15:29;;;;;;;4.37;3.80;;;12.70;99.90;;;;;;5052471;28;20489;-67
2023/09/25 00:17:57;;;;;;;3.83;3.53;;;12.80;99.90;;;;;;5053299;28;20477;-67
2023/09/25 00:20:26;;;;;;;4.00;3.43;;;12.70;99.90;;;;;;5052287;28;20496;-67
2023/09/25 00:22:55;;;;;;;4.70;3.80;;;12.70;99.90;;;;;;5054790;28;20470;-67
2023/09/25 00:25:24;;;;;;;4.00;3.70;;;12.70;99.90;;;;;;5052842;28;20604;-66
2023/09/25 00:27:52;;;;;;;3.97;3.57;;;12.70;99.90;;;;;;5059270;28;20478;-67
2023/09/25 00:30:20;;;;;;;4.17;3.87;;;12.60;99.90;;;;;;5059112;28;20493;-67
2023/09/25 00:32:51;;;;;;;3.97;3.67;;;12.70;99.90;;;;;;5058895;28;20471;-66
2023/09/25 00:35:20;;;;;;;3.87;3.40;;;12.60;99.90;;;;;;5052958;28;20539;-67
2023/09/25 00:37:48;;;;;;;4.23;3.90;;;12.60;99.90;;;;;;5054761;28;21001;-67
2023/09/25 00:40:18;;;;;;;4.10;3.80;;;12.60;99.90;;;;;;5053808;28;20531;-67
2023/09/25 00:42:50;;;;;;;3.73;3.43;;;12.60;99.90;;;;;;5053951;28;20481;-67
2023/09/25 00:45:18;;;;;;;3.90;3.60;;;12.50;99.90;;;;;;5056197;28;20514;-66
2023/09/25 00:47:46;;;;;;;8.80;4.20;;;12.50;99.90;;;;;;5052714;28;21909;-66
2023/09/25 00:50:16;;;;;;;4.20;3.90;;;12.50;99.90;;;;;;5051844;28;20481;-66
2023/09/25 00:52:45;;;;;;;4.47;4.00;;;12.50;99.90;;;;;;5052196;28;20597;-66
2023/09/25 00:55:15;;;;;;;3.73;3.43;;;12.50;99.90;;;;;;5052707;28;20496;-66
2023/09/25 00:57:48;;;;;;;4.57;4.13;;;12.50;99.90;;;;;;5053789;28;20470;-66
2023/09/25 01:00:17;;;;;;;4.63;4.20;;;12.40;99.90;;;;;;5056609;28;20708;-66
2023/09/25 01:02:47;;;;;;;5.13;4.57;;;12.40;99.90;;;;;;5045222;28;21066;-66
2023/09/25 01:05:17;;;;;;;4.37;3.97;;;12.40;99.90;;;;;;5050176;28;20500;-66
2023/09/25 01:07:45;;;;;;;4.17;3.80;;;12.40;99.90;;;;;;5053054;28;20934;-66
2023/09/25 01:10:15;;;;;;;4.33;3.93;;;12.40;99.90;;;;;;5052334;28;20550;-67
2023/09/25 01:12:44;;;;;;;4.50;4.10;;;12.30;99.90;;;;;;5051064;28;20465;-66
2023/09/25 01:15:13;;;;;;;4.33;4.03;;;12.30;99.90;;;;;;5051792;28;20489;-66
2023/09/25 01:17:43;;;;;;;4.13;3.83;;;12.30;99.90;;;;;;5051023;28;20552;-66
2023/09/25 01:20:15;;;;;;;5.57;4.33;;;12.30;99.90;;;;;;5050452;28;20977;-66
2023/09/25 01:22:46;;;;;;;4.20;3.80;;;12.20;99.90;;;;;;5051710;28;20474;-66
2023/09/25 01:25:15;;;;;;;4.70;4.30;;;12.20;99.90;;;;;;5055981;28;20491;-66
2023/09/25 01:27:45;;;;;;;4.60;4.13;;;12.20;99.90;;;;;;5060152;28;21059;-66
2023/09/25 01:30:14;;;;;;;4.23;3.90;;;12.20;99.90;;;;;;5057783;28;20477;-66
2023/09/25 01:32:44;;;;;;;4.83;4.43;;;12.20;99.90;;;;;;5059161;28;20580;-66
2023/09/25 01:35:16;;;;;;;4.73;4.37;;;12.10;99.90;;;;;;5055373;28;20533;-66
2023/09/25 01:37:47;;;;;;;4.30;3.97;;;12.10;99.90;;;;;;5057688;28;20472;-66
2023/09/25 01:40:17;;;;;;;4.70;4.10;;;12.10;99.90;;;;;;5056800;28;20475;-66
2023/09/25 01:42:45;;;;;;;4.93;4.53;;;12.10;99.90;;;;;;5059225;28;20502;-66
2023/09/25 01:45:16;;;;;;;5.13;4.60;;;12.10;99.90;;;;;;5058180;28;20546;-67
2023/09/25 01:47:49;;;;;;;4.67;4.10;;;12.10;99.90;;;;;;5056663;28;20508;-67
2023/09/25 01:50:18;;;;;;;4.67;4.27;;;12.10;99.90;;;;;;5057618;28;20474;-68
2023/09/25 01:52:49;;;;;;;4.77;4.37;;;12.00;99.90;;;;;;5058708;28;20490;-68
2023/09/25 01:55:17;;;;;;;4.43;4.03;;;12.00;99.90;;;;;;5056785;28;20497;-68
2023/09/25 01:57:45;;;;;;;4.23;3.90;;;12.00;99.90;;;;;;5055405;28;20961;-68
2023/09/25 02:00:13;;;;;;;5.23;4.77;;;12.00;99.90;;;;;;5057469;28;20481;-68
2023/09/25 02:02:41;;;;;;;4.90;4.50;;;12.00;99.90;;;;;;5055639;28;20554;-67
2023/09/25 02:05:10;;;;;;;4.20;3.90;;;12.00;99.90;;;;;;5057064;28;20482;-68
2023/09/25 02:07:38;;;;;;;4.37;4.07;;;12.00;99.90;;;;;;5050085;28;20473;-67
2023/09/25 02:10:10;;;;;;;5.80;4.97;;;11.90;99.90;;;;;;5052593;28;20505;-67
2023/09/25 02:12:38;;;;;;;5.10;4.70;;;11.90;99.90;;;;;;5050304;28;20582;-68
2023/09/25 02:15:08;;;;;;;4.13;3.77;;;11.90;99.90;;;;;;5052330;28;20512;-68
2023/09/25 02:17:36;;;;;;;4.60;4.20;;;11.90;99.90;;;;;;5050612;28;20829;-68
2023/09/25 02:20:20;;;;;;;4.97;4.47;;;11.80;99.90;;;;;;5050428;28;20465;-68
2023/09/25 02:22:48;;;;;;;4.00;3.70;;;11.90;99.90;;;;;;5050098;28;20461;-68
2023/09/25 02:25:18;;;;;;;4.70;4.40;;;11.90;99.90;;;;;;5053592;28;20485;-68
2023/09/25 02:27:46;;;;;;;5.10;4.67;;;11.90;99.90;;;;;;5055754;28;20925;-68
2023/09/25 02:30:15;;;;;;;5.37;4.87;;;11.80;99.90;;;;;;5054238;28;20469;-68
2023/09/25 02:32:43;;;;;;;4.40;4.00;;;11.80;99.90;;;;;;5051414;28;20488;-68
2023/09/25 02:35:12;;;;;;;4.90;4.50;;;11.80;99.90;;;;;;5047609;28;20504;-67
2023/09/25 02:37:40;;;;;;;4.63;4.23;;;11.80;99.90;;;;;;5059363;28;21001;-67
2023/09/25 02:40:13;;;;;;;5.00;4.60;;;11.70;99.90;;;;;;5056334;28;22229;-66
2023/09/25 02:42:44;;;;;;;4.80;4.40;;;11.70;99.90;;;;;;5057824;28;21149;-66
2023/09/25 02:45:13;;;;;;;4.83;4.40;;;11.70;99.90;;;;;;5056400;28;20489;-68
2023/09/25 02:47:41;;;;;;;5.37;4.87;;;11.70;99.90;;;;;;5056730;28;20600;-67
2023/09/25 02:50:09;;;;;;;5.30;4.80;;;11.60;99.90;;;;;;5058760;28;20557;-66
2023/09/25 02:52:37;;;;;;;4.80;4.47;;;11.60;99.90;;;;;;5058513;28;20486;-66
2023/09/25 02:55:07;;;;;;;4.80;4.40;;;11.60;99.90;;;;;;5052814;28;20570;-68
2023/09/25 02:57:35;;;;;;;5.50;5.10;;;11.60;99.90;;;;;;5056576;28;20473;-67
2023/09/25 03:00:09;;;;;;;5.60;5.10;;;11.60;99.90;;;;;;5058172;28;20592;-66
2023/09/25 03:02:37;;;;;;;5.30;4.80;;;11.50;99.90;;;;;;5056112;28;20924;-66
2023/09/25 03:05:06;;;;;;;5.10;4.70;;;11.50;99.90;;;;;;5053568;28;20559;-66
2023/09/25 03:07:34;;;;;;;4.80;4.40;;;11.50;99.90;;;;;;5055878;28;20470;-67
2023/09/25 03:10:03;;;;;;;5.10;4.70;;;11.50;99.90;;;;;;5053807;28;20561;-67
2023/09/25 03:12:32;;;;;;;5.03;4.63;;;11.50;99.90;;;;;;5055387;28;20992;-67
2023/09/25 03:15:00;;;;;;;5.50;5.10;;;11.50;99.90;;;;;;5054142;28;20517;-66
2023/09/25 03:17:29;;;;;;;5.60;5.00;;;11.50;99.90;;;;;;5052869;28;20474;-66
2023/09/25 03:19:57;;;;;;;5.13;4.73;;;11.40;99.90;;;;;;5053893;28;20484;-67
2023/09/25 03:22:25;;;;;;;5.20;4.70;;;11.50;99.90;;;;;;5054916;28;20961;-67
2023/09/25 03:24:53;;;;;;;5.50;5.00;;;11.40;99.90;;;;;;5052350;28;20490;-67
2023/09/25 03:27:21;;;;;;;4.87;4.57;;;11.50;99.90;;;;;;5053216;28;20912;-67
2023/09/25 03:29:49;;;;;;;5.40;4.90;;;11.50;99.90;;;;;;5052284;28;21066;-67
2023/09/25 03:32:17;;;;;;;5.07;4.67;;;11.40;99.90;;;;;;5055689;28;20589;-67
2023/09/25 03:34:46;;;;;;;4.57;4.13;;;11.50;99.90;;;;;;5049857;28;20580;-66
2023/09/25 03:37:14;;;;;;;5.30;4.77;;;11.40;99.90;;;;;;5053837;28;20966;-67
2023/09/25 03:39:42;;;;;;;5.47;5.00;;;11.40;99.90;;;;;;5051765;28;21005;-67
2023/09/25 03:42:10;;;;;;;6.70;5.00;;;11.40;99.90;;;;;;5051736;28;20532;-67
2023/09/25 03:44:38;;;;;;;5.00;4.50;;;11.30;99.90;;;;;;5053060;28;20553;-66
2023/09/25 03:47:06;;;;;;;5.27;4.87;;;11.40;99.90;;;;;;5051343;28;20471;-67
2023/09/25 03:49:34;;;;;;;5.57;5.13;;;11.40;99.90;;;;;;5047491;28;20479;-66
2023/09/25 03:52:04;;;;;;;5.27;4.77;;;11.40;99.90;;;;;;5050515;28;20624;-66
2023/09/25 03:54:32;;;;;;;5.90;5.40;;;11.40;99.90;;;;;;5045289;28;20492;-66
2023/09/25 03:57:00;;;;;;;7.27;5.13;;;11.40;99.90;;;;;;5049638;28;20466;-66
2023/09/25 03:59:28;;;;;;;5.30;4.90;;;11.30;99.90;;;;;;5058397;28;20466;-66
2023/09/25 04:01:56;;;;;;;5.47;4.97;;;11.30;99.90;;;;;;5056992;28;20473;-66
2023/09/25 04:04:24;;;;;;;5.60;4.80;;;11.30;99.90;;;;;;5055315;28;21013;-67
2023/09/25 04:06:52;;;;;;;5.70;5.20;;;11.30;99.90;;;;;;5053445;28;20486;-67
2023/09/25 04:09:21;;;;;;;5.20;4.80;;;11.30;99.90;;;;;;5052981;28;20561;-67
2023/09/25 04:11:49;;;;;;;5.43;5.03;;;11.30;99.90;;;;;;5048205;28;20478;-67
2023/09/25 04:14:17;;;;;;;5.40;5.00;;;11.30;99.90;;;;;;5052933;28;20490;-66
2023/09/25 04:16:46;;;;;;;5.67;5.17;;;11.30;99.90;;;;;;5050981;28;20517;-67
2023/09/25 04:19:14;;;;;;;5.50;5.00;;;11.30;99.90;;;;;;5052319;28;20496;-67
2023/09/25 04:21:42;;;;;;;5.80;5.30;;;11.30;99.90;;;;;;5056838;28;20883;-67
2023/09/25 04:24:10;;;;;;;5.70;5.20;;;11.20;99.90;;;;;;5054204;28;20478;-67
2023/09/25 04:26:40;;;;;;;6.20;5.60;;;11.20;99.90;;;;;;5056061;28;20515;-66
2023/09/25 04:29:15;;;;;;;5.93;5.43;;;11.30;99.90;;;;;;5055291;28;20474;-67
2023/09/25 04:31:43;;;;;;;5.70;5.20;;;11.20;99.90;;;;;;5058149;28;20496;-67
2023/09/25 04:34:11;;;;;;;5.93;5.53;;;11.30;99.90;;;;;;5053487;28;20523;-68
2023/09/25 04:36:40;;;;;;;6.00;5.50;;;11.30;99.90;;;;;;5054197;28;20585;-66
2023/09/25 04:39:10;;;;;;;6.00;5.50;;;11.20;99.90;;;;;;5054378;28;20477;-67
2023/09/25 04:41:39;;;;;;;6.33;5.73;;;11.20;99.90;;;;;;5053367;28;20466;-69
2023/09/25 04:44:10;;;;;;;6.00;5.50;;;11.20;99.90;;;;;;5054894;28;20899;-66
2023/09/25 04:46:38;;;;;;;5.97;5.47;;;11.20;99.90;;;;;;5049138;28;20659;-66
2023/09/25 04:49:07;;;;;;;6.27;5.70;;;11.20;99.90;;;;;;5054161;28;20611;-67
2023/09/25 04:51:35;;;;;;;6.10;5.60;;;11.20;99.90;;;;;;5054406;28;20625;-67
2023/09/25 04:54:05;;;;;;;6.10;5.60;;;11.20;99.90;;;;;;5056733;28;20493;-67
2023/09/25 04:56:33;;;;;;;6.23;5.73;;;11.20;99.90;;;;;;5052759;28;20723;-68
2023/09/25 04:59:03;;;;;;;5.43;5.03;;;11.20;99.90;;;;;;5053964;28;20533;-72
2023/09/25 05:01:30;;;;;;;6.10;5.60;;;11.20;99.90;;;;;;5058254;28;20505;-68
2023/09/25 05:03:59;;;;;;;6.80;6.20;;;11.20;99.90;;;;;;5055961;28;20578;-69
2023/09/25 05:06:27;;;;;;;5.90;5.40;;;11.20;99.90;;;;;;5054023;28;20997;-69
2023/09/25 05:08:55;;;;;;;9.43;6.17;;;11.20;99.90;;;;;;5054183;28;20472;-69
2023/09/25 05:11:23;;;;;;;7.10;6.50;;;11.20;99.90;;;;;;5052808;28;20478;-69
2023/09/25 05:13:51;;;;;;;6.13;5.63;;;11.20;99.90;;;;;;5051111;28;20592;-69
2023/09/25 05:16:20;;;;;;;7.43;6.50;;;11.20;99.90;;;;;;5055855;28;20513;-69
2023/09/25 05:18:48;;;;;;;6.40;5.90;;;11.20;99.90;;;;;;5039989;28;20469;-69
2023/09/25 05:21:17;;;;;;;6.83;6.23;;;11.20;99.90;;;;;;5040848;28;20493;-69
2023/09/25 05:23:45;;;;;;;7.40;6.80;;;11.20;99.90;;;;;;5050483;28;20828;-69
2023/09/25 05:26:13;;;;;;;6.73;6.20;;;11.20;99.90;;;;;;5033498;28;20822;-69
2023/09/25 05:28:41;;;;;;;6.80;6.20;;;11.20;99.90;;;;;;5041431;28;20752;-69
2023/09/25 05:31:09;;;;;;;6.90;6.30;;;11.30;99.90;;;;;;5034869;28;20474;-69
2023/09/25 05:33:39;;;;;;;6.17;5.57;;;11.30;99.90;;;;;;5039982;28;20551;-68
2023/09/25 05:36:07;;;;;;;5.87;5.47;;;11.30;99.90;;;;;;5027336;28;21041;-69
2023/09/25 05:38:35;;;;;;;6.50;6.00;;;11.30;99.90;;;;;;5038511;28;21840;-69
2023/09/25 05:41:03;;;;;;;6.80;6.10;;;11.30;99.90;;;;;;5043221;28;20938;-68
2023/09/25 05:43:31;;;;;;;7.17;6.40;;;11.30;99.90;;;;;;5039071;28;20989;-68
2023/09/25 05:45:59;;;;;;;10.90;7.10;;;11.30;99.90;;;;;;5040251;28;21008;-68
2023/09/25 05:48:27;;;;;;;6.90;6.30;;;11.30;99.90;;;;;;5048537;28;20470;-68
2023/09/25 05:50:57;;;;;;;6.87;6.10;;;11.30;99.90;;;;;;5049191;28;20473;-68
2023/09/25 05:53:25;;;;;;;7.13;6.10;;;11.30;99.90;;;;;;5044934;28;21075;-68
2023/09/25 05:55:55;;;;;;;6.63;6.00;;;11.40;99.90;;;;;;5043202;28;20518;-68
2023/09/25 05:58:23;;;;;;;6.87;6.27;;;11.40;99.90;;;;;;5043961;28;20472;-68
2023/09/25 06:00:51;;;;;;;7.60;6.90;;;11.40;99.90;;;;;;5054930;28;20482;-68
2023/09/25 06:03:19;;;;;;;7.00;6.40;;;11.40;99.90;;;;;;5049461;28;21546;-68
2023/09/25 06:05:48;;;;;;;6.90;6.20;;;11.50;99.90;;;;;;5055582;28;20503;-68
2023/09/25 06:08:17;;;;;;;6.97;6.37;;;11.50;99.90;;;;;;5051761;28;20478;-68
2023/09/25 06:10:45;;;;;;;7.20;6.50;;;11.50;99.90;;;;;;5053633;28;20553;-68
2023/09/25 06:13:13;;;;;;;7.40;6.80;;;11.50;99.90;;;;;;5050027;28;20551;-69
2023/09/25 06:15:46;;;;;;;6.77;6.27;;;11.60;99.90;;;;;;5054895;28;21082;-69
2023/09/25 06:18:14;;;;;;;6.80;6.03;;;11.60;99.90;;;;;;5052090;28;20465;-69
2023/09/25 06:20:43;;;;;;;6.63;6.00;;;11.60;99.90;;;;;;5045061;28;20555;-69
2023/09/25 06:23:11;;;;;;;6.73;6.10;;;11.70;99.90;;;;;;5056229;28;20482;-68
2023/09/25 06:25:41;;;;;;;6.70;6.10;;;11.70;99.90;;;;;;5049706;28;20584;-68
2023/09/25 06:28:09;;;;;;;7.83;6.63;;;11.80;99.90;;;;;;5050805;28;20466;-68
2023/09/25 06:30:37;;;;;;;7.17;6.67;;;11.80;99.90;;;;;;5046827;28;20548;-68
2023/09/25 06:33:06;;;;;;;6.93;6.23;;;11.80;99.90;;;;;;5050012;28;20875;-68
2023/09/25 06:35:35;;;;;;;5.83;5.37;;;11.80;99.90;;;;;;5046772;28;20502;-68
2023/09/25 06:38:03;;;;;;;7.30;6.70;;;11.80;99.90;;;;;;5051519;28;20836;-68
2023/09/25 06:40:31;;;;;;;7.07;6.47;;;11.80;99.90;;;;;;5044768;28;20467;-68
2023/09/25 06:43:00;;;;;;;8.13;7.37;;;11.80;99.90;;;;;;5045838;28;20505;-68
2023/09/25 06:45:28;;;;;;;7.27;6.23;;;11.80;99.90;;;;;;5045681;28;21342;-68
2023/09/25 06:47:56;;;;;;;7.10;6.40;;;11.90;99.90;;;;;;5039878;28;20788;-68
2023/09/25 06:50:24;;;;;;;6.60;6.00;;;11.90;99.90;;;;;;5048974;28;20469;-68
2023/09/25 06:52:52;;;;;;;7.00;6.10;;;12.00;99.90;;;;;;5050645;28;20557;-68
2023/09/25 06:55:20;;;;;;;6.87;6.27;;;12.10;99.90;;;;;;5049523;28;21986;-68
2023/09/25 06:57:48;;;;;;;6.60;5.73;;;12.20;99.90;;;;;;5051917;28;20544;-68
2023/09/25 07:00:18;;;;;;;5.90;5.50;;;12.20;99.90;;;;;;5047380;28;20470;-68
2023/09/25 07:02:46;;;;;;;6.43;5.83;;;12.20;99.90;;;;;;5048168;28;20473;-68
2023/09/25 07:05:14;;;;;;;6.60;6.10;;;12.20;99.90;;;;;;5048000;28;20505;-67
2023/09/25 07:07:43;;;;;;;6.33;5.83;;;12.30;99.90;;;;;;5051561;28;20474;-68
2023/09/25 07:10:11;;;;;;;6.70;6.20;;;12.30;99.90;;;;;;5047887;28;20584;-67
2023/09/25 07:12:40;;;;;;;6.13;5.63;;;12.40;99.90;;;;;;5051122;28;20478;-67
2023/09/25 07:15:09;;;;;;;6.40;5.90;;;12.40;99.90;;;;;;5049456;28;20867;-68
2023/09/25 07:17:39;;;;;;;5.90;5.30;;;12.40;99.90;;;;;;5049228;28;20470;-67
2023/09/25 07:20:09;;;;;;;6.20;5.70;;;12.50;99.90;;;;;;5045845;28;20568;-68
2023/09/25 07:22:37;;;;;;;6.00;5.40;;;12.50;99.90;;;;;;5051205;28;20538;-68
2023/09/25 07:25:06;;;;;;;6.70;6.10;;;12.60;99.90;;;;;;5048456;28;20521;-67
2023/09/25 07:27:34;;;;;;;6.53;5.93;;;12.70;99.90;;;;;;5052479;28;20575;-67
2023/09/25 07:30:05;;;;;;;6.40;5.80;;;12.80;99.90;;;;;;5053787;28;20473;-67
2023/09/25 07:32:33;;;;;;;5.30;4.90;;;12.90;99.90;;;;;;5050400;28;20469;-68
2023/09/25 07:35:07;;;;;;;5.30;4.90;;;12.90;99.90;;;;;;5050767;28;20588;-68
2023/09/25 07:37:35;;;;;;;5.63;5.23;;;13.00;99.90;;;;;;5053479;28;20552;-67
2023/09/25 07:40:07;;;;;;;5.70;5.30;;;13.10;99.90;;;;;;5052560;28;20471;-68
2023/09/25 07:42:35;;;;;;;5.13;4.63;;;13.10;99.90;;;;;;5053640;28;20505;-68
2023/09/25 07:45:06;;;;;;;5.33;4.83;;;13.20;99.90;;;;;;5053070;28;20519;-67
2023/09/25 07:47:38;;;;;;;5.07;4.67;;;13.30;99.90;;;;;;5052829;28;20505;-67
2023/09/25 07:50:10;;;;;;;6.30;4.73;;;13.50;99.90;;;;;;5049696;28;20497;-67
2023/09/25 07:52:38;;;;;;;5.10;4.70;;;13.60;99.90;;;;;;5054240;28;20486;-68
2023/09/25 07:55:10;;;;;;;4.80;4.40;;;13.70;99.90;;;;;;5051365;28;20990;-67
2023/09/25 07:57:40;;;;;;;4.47;4.07;;;13.80;99.90;;;;;;5051505;28;20481;-68
2023/09/25 08:00:25;;;;;;;4.40;4.00;;;13.80;99.90;;;;;;5052790;28;20873;-67
2023/09/25 08:02:54;;;;;;;5.10;4.00;;;14.00;99.90;;;;;;5057118;28;20491;-68
2023/09/25 08:05:23;;;;;;;4.60;4.30;;;14.00;99.90;;;;;;5056482;28;21095;-68
2023/09/25 08:07:52;;;;;;;4.17;3.87;;;14.10;99.90;;;;;;5054172;28;20470;-67
2023/09/25 08:10:24;;;;;;;4.40;4.03;;;14.20;99.90;;;;;;5052701;28;20900;-68
2023/09/25 08:12:52;;;;;;;4.10;3.90;;;14.30;99.90;;;;;;5057670;28;20470;-68
2023/09/25 08:15:21;;;;;;;4.40;4.00;;;14.40;99.90;;;;;;5050862;28;20482;-68
2023/09/25 08:17:49;;;;;;;5.40;3.73;;;14.40;99.90;;;;;;5054370;28;20503;-68
2023/09/25 08:20:20;;;;;;;5.00;3.57;;;14.50;99.90;;;;;;5053200;28;20523;-66
2023/09/25 08:22:51;;;;;;;4.83;4.00;;;14.60;99.90;;;;;;5056290;28;20453;-66
2023/09/25 08:25:20;;;;;;;4.00;3.60;;;14.70;99.90;;;;;;5053659;28;20544;-66
2023/09/25 08:27:50;;;;;;;3.67;3.47;;;14.70;99.90;;;;;;5055670;28;20468;-66
2023/09/25 08:30:19;;;;;;;3.50;3.30;;;14.80;99.90;;;;;;5049823;28;20554;-66
2023/09/25 08:32:47;;;;;;;3.40;3.20;;;14.90;99.90;;;;;;5052718;28;20965;-66
2023/09/25 08:35:15;;;;;;;4.00;3.70;;;15.00;99.90;;;;;;5050150;28;21170;-66
2023/09/25 08:37:43;;;;;;;4.20;3.50;;;15.00;99.90;;;;;;5060564;28;20561;-68
2023/09/25 08:40:14;;;;;;;5.53;3.23;;;15.10;99.90;;;;;;5054292;28;20482;-66
2023/09/25 08:42:43;;;;;;;3.93;3.57;;;15.10;99.90;;;;;;5056641;28;20500;-66
2023/09/25 08:45:11;;;;;;;4.13;3.30;;;15.20;99.90;;;;;;5053441;28;20512;-66
2023/09/25 08:47:41;;;;;;;3.93;3.63;;;15.30;99.90;;;;;;5055996;28;20461;-66
2023/09/25 08:50:10;;;;;;;3.70;3.40;;;15.30;99.90;;;;;;5053856;28;20466;-66
2023/09/25 08:52:38;;;;;;;3.67;3.37;;;15.40;99.90;;;;;;5054056;28;20512;-66
2023/09/25 08:55:08;;;;;;;3.43;3.13;;;15.50;99.90;;;;;;5052688;28;21036;-66
2023/09/25 08:57:39;;;;;;;3.67;3.37;;;15.60;99.90;;;;;;5055625;28;20550;-66
2023/09/25 09:00:11;;;;;;;4.13;3.73;;;15.80;99.90;;;;;;5055791;28;20471;-66
2023/09/25 09:02:41;;;;;;;3.60;3.30;;;15.90;99.90;;;;;;5057315;28;20476;-66
2023/09/25 09:05:12;;;;;;;3.70;3.40;;;16.00;99.90;;;;;;5057038;28;20501;-66
2023/09/25 09:07:40;;;;;;;3.37;3.17;;;16.10;99.90;;;;;;5058902;28;20969;-66
2023/09/25 09:10:09;;;;;;;3.33;3.03;;;16.20;99.90;;;;;;5053943;28;21174;-66
2023/09/25 09:12:53;;;;;;;3.43;3.23;;;16.30;99.90;;;;;;5055457;28;20493;-66
2023/09/25 09:15:31;;;;;;;3.20;2.97;;;16.40;99.90;;;;;;5048861;28;20485;-66
2023/09/25 09:18:00;;;;;;;3.40;3.20;;;16.50;99.90;;;;;;5055910;28;20474;-66
2023/09/25 09:20:36;;;;;;;4.03;3.70;;;16.60;99.90;;;;;;5054109;28;20474;-66
2023/09/25 09:23:05;;;;;;;3.10;2.80;;;16.80;99.90;;;;;;5055235;28;20476;-66
2023/09/25 09:25:35;;;;;;;2.70;2.50;;;16.90;99.90;;;;;;5052298;28;20495;-66
2023/09/25 09:28:05;;;;;;;3.97;3.23;;;17.00;99.90;;;;;;5055015;28;20480;-66
2023/09/25 09:30:33;;;;;;;4.00;3.07;;;17.10;99.90;;;;;;5054033;28;20466;-66
2023/09/25 09:33:02;;;;;;;3.20;3.00;;;17.20;99.90;;;;;;5056063;28;20465;-66
2023/09/25 09:35:30;;;;;;;2.97;2.77;;;17.30;99.90;;;;;;5057402;28;20489;-66
2023/09/25 09:38:02;;;;;;;3.40;3.00;;;17.40;99.90;;;;;;5056784;28;20477;-66
2023/09/25 09:40:30;;;;;;;4.43;2.80;;;17.40;99.90;;;;;;5060293;28;20481;-66
2023/09/25 09:42:59;;;;;;;2.70;2.50;;;17.50;99.90;;;;;;5059361;28;20530;-66
2023/09/25 09:45:29;;;;;;;3.10;2.90;;;17.60;99.90;;;;;;5053218;28;20494;-68
2023/09/25 09:47:59;;;;;;;4.17;2.90;;;17.70;99.90;;;;;;5051723;28;20523;-66
2023/09/25 09:50:28;;;;;;;2.67;2.47;;;17.80;99.90;;;;;;5050907;28;20518;-67
2023/09/25 09:52:57;;;;;;;2.33;2.13;;;17.90;99.90;;;;;;5058674;28;20909;-66
2023/09/25 09:55:27;;;;;;;2.53;2.20;;;17.90;99.90;;;;;;5057319;28;20546;-66
2023/09/25 09:57:55;;;;;;;2.67;2.47;;;18.00;99.90;;;;;;5056650;28;20543;-67
2023/09/25 10:00:23;;;;;;;2.40;2.30;;;18.10;99.90;;;;;;5059788;28;20465;-67
2023/09/25 10:02:55;;;;;;;2.23;2.13;;;18.10;99.90;;;;;;5056513;28;20558;-66
2023/09/25 10:05:23;;;;;;;2.67;2.47;;;18.10;99.90;;;;;;5056228;28;20916;-67
2023/09/25 10:08:05;;;;;;;2.37;2.23;;;18.20;99.90;;;;;;5059988;28;21082;-66
2023/09/25 10:10:33;;;;;;;2.43;2.17;;;18.30;99.90;;;;;;5050870;28;20466;-66
2023/09/25 10:13:01;;;;;;;2.20;2.10;;;18.30;99.90;;;;;;5050723;28;20966;-66
2023/09/25 10:15:30;;;;;;;2.10;2.00;;;18.40;99.90;;;;;;5047477;28;20526;-67
2023/09/25 10:17:59;;;;;;;2.50;2.30;;;18.50;99.90;;;;;;5051757;28;20999;-66
2023/09/25 10:20:32;;;;;;;2.43;2.23;;;18.50;99.90;;;;;;5055287;28;20470;-69
2023/09/25 10:23:04;;;;;;;2.53;2.33;;;18.60;99.90;;;;;;5059356;28;20501;-67
2023/09/25 10:25:44;;;;;;;3.17;2.40;;;18.70;99.90;;;;;;5058101;28;20499;-66
2023/09/25 10:28:16;;;;;;;2.83;2.03;;;18.80;99.90;;;;;;5059432;28;20536;-67
2023/09/25 10:30:44;;;;;;;2.10;2.00;;;18.90;99.90;;;;;;5051976;28;20470;-66
2023/09/25 10:33:16;;;;;;;2.10;2.00;;;19.00;99.90;;;;;;5056835;28;20854;-67
2023/09/25 10:35:47;;;;;;;2.43;2.23;;;19.00;99.90;;;;;;5058633;28;20505;-67
2023/09/25 10:38:19;;;;;;;2.30;2.10;;;19.10;99.90;;;;;;5058527;28;21013;-67
2023/09/25 10:41:01;;;;;;;1.80;1.70;;;19.20;99.90;;;;;;5058854;28;20469;-67
2023/09/25 10:43:30;;;;;;;3.30;2.10;;;19.20;99.90;;;;;;5058017;28;20478;-67
2023/09/25 10:45:59;;;;;;;2.00;1.80;;;19.20;99.90;;;;;;5050948;28;20588;-67
2023/09/25 10:48:31;;;;;;;2.00;1.80;;;19.30;99.90;;;;;;5059029;28;20518;-67
2023/09/25 10:51:02;;;;;;;2.00;1.90;;;19.40;99.90;;;;;;5054938;28;20853;-67
2023/09/25 10:53:30;;;;;;;2.80;2.53;;;19.50;99.90;;;;;;5055995;28;20638;-67
2023/09/25 10:55:58;;;;;;;2.40;2.00;;;19.60;99.90;;;;;;5058094;28;20504;-67
2023/09/25 10:58:26;;;;;;;3.43;2.30;;;19.70;99.90;;;;;;5057234;28;20556;-67
2023/09/25 11:00:55;;;;;;;1.87;1.77;;;19.80;99.90;;;;;;5053267;28;20556;-67
2023/09/25 11:03:24;;;;;;;2.33;1.70;;;20.00;99.90;;;;;;5052176;28;20466;-67
2023/09/25 11:05:55;;;;;;;2.37;2.23;;;20.00;99.90;;;;;;5056279;28;20979;-67
2023/09/25 11:08:23;;;;;;;2.23;2.13;;;20.20;99.90;;;;;;5057119;28;20553;-67
2023/09/25 11:10:51;;;;;;;2.03;1.73;;;20.30;99.90;;;;;;5054258;28;21043;-67
2023/09/25 11:13:21;;;;;;;1.90;1.80;;;20.40;99.90;;;;;;5055843;28;20477;-67
2023/09/25 11:15:49;;;;;;;2.47;1.93;;;20.60;99.90;;;;;;5056383;28;20481;-67
2023/09/25 11:18:20;;;;;;;1.90;1.80;;;20.60;99.90;;;;;;5056792;28;21003;-67
2023/09/25 11:20:51;;;;;;;2.83;1.97;;;20.70;99.90;;;;;;5055665;28;20989;-67
2023/09/25 11:23:21;;;;;;;2.00;1.90;;;20.80;99.90;;;;;;5048437;28;20476;-66
2023/09/25 11:25:51;;;;;;;1.70;1.60;;;20.90;99.90;;;;;;5047965;28;20504;-67
2023/09/25 11:28:21;;;;;;;1.97;1.87;;;21.00;99.90;;;;;;5048329;28;20805;-67
2023/09/25 11:30:50;;;;;;;1.93;1.83;;;21.10;99.90;;;;;;5045269;28;20532;-67
2023/09/25 11:33:21;;;;;;;2.10;1.90;;;21.20;99.90;;;;;;5051566;28;20969;-67
2023/09/25 11:35:50;;;;;;;2.20;2.10;;;21.20;99.90;;;;;;5051456;28;20587;-67
2023/09/25 11:38:23;;;;;;;2.30;2.10;;;21.30;99.90;;;;;;5053819;28;20462;-67
2023/09/25 11:40:53;;;;;;;2.37;1.90;;;21.40;99.90;;;;;;5051341;28;21074;-67
2023/09/25 11:43:23;;;;;;;2.77;2.20;;;21.60;99.90;;;;;;5053629;28;20462;-67
2023/09/25 11:45:52;;;;;;;2.63;2.20;;;21.70;99.90;;;;;;5056715;28;20497;-67
2023/09/25 11:48:22;;;;;;;4.03;2.13;;;21.90;99.90;;;;;;5055091;28;20565;-67
2023/09/25 11:50:50;;;;;;;2.47;2.27;;;22.00;98.60;;;;;;5060275;28;20466;-67
2023/09/25 11:53:21;;;;;;;1.83;1.73;;;22.00;93.90;;;;;;5062532;28;20473;-67
2023/09/25 11:55:49;;;;;;;2.13;1.67;;;22.10;96.70;;;;;;5057846;28;20583;-67
2023/09/25 11:58:18;;;;;;;2.93;1.87;;;22.10;94.40;;;;;;5056199;28;20493;-67
2023/09/25 12:00:46;;;;;;;2.60;1.60;;;22.20;92.10;;;;;;5057072;28;20523;-67
2023/09/25 12:03:14;;;;;;;3.73;1.60;;;22.30;94.60;;;;;;5058631;28;20512;-67
2023/09/25 12:05:42;;;;;;;2.40;2.20;;;22.30;83.20;;;;;;5061723;28;20482;-66
2023/09/25 12:08:12;;;;;;;2.13;1.93;;;22.40;87.50;;;;;;5061888;28;20972;-67
2023/09/25 12:10:42;;;;;;;1.90;1.80;;;22.30;83.40;;;;;;5061953;28;20911;-67
2023/09/25 12:13:10;;;;;;;2.10;1.90;;;22.30;80.10;;;;;;5059765;28;20842;-67
2023/09/25 12:15:38;;;;;;;2.00;1.80;;;22.30;74.80;;;;;;5058568;28;20563;-67
2023/09/25 12:18:06;;;;;;;1.93;1.70;;;22.40;75.50;;;;;;5058037;28;21002;-67
2023/09/25 12:20:38;;;;;;;2.00;1.90;;;22.40;74.80;;;;;;5061197;28;20476;-67
2023/09/25 12:23:06;;;;;;;2.03;1.90;;;22.50;72.80;;;;;;5062106;28;20480;-67
2023/09/25 12:25:35;;;;;;;2.13;1.97;;;22.50;72.80;;;;;;5055060;28;20531;-67
2023/09/25 12:28:05;;;;;;;1.80;1.70;;;22.70;69.70;;;;;;5059001;28;20506;-67
2023/09/25 12:30:35;;;;;;;2.10;2.00;;;22.80;64.60;;;;;;5059885;28;20619;-67
2023/09/25 12:33:05;;;;;;;2.37;2.03;;;23.00;68.80;;;;;;5060510;28;20966;-67
2023/09/25 12:35:33;;;;;;;2.30;2.00;;;23.30;65.00;;;;;;5065540;28;20572;-67
2023/09/25 12:38:01;;;;;;;2.07;1.90;;;23.60;67.10;;;;;;5064817;28;20553;-68
2023/09/25 12:40:29;;;;;;;2.23;1.87;;;24.00;63.70;;;;;;5069904;28;20516;-67
2023/09/25 12:42:58;;;;;;;2.97;2.10;;;24.50;58.30;;;;;;5062308;28;21307;-67
2023/09/25 12:45:28;;;;;;;2.37;2.17;;;25.00;56.80;;;;;;5060265;28;20509;-66
2023/09/25 12:47:56;;;;;;;2.33;1.73;;;25.50;53.30;;;;;;5058743;28;20535;-67
2023/09/25 12:50:24;;;;;;;3.10;1.90;;;25.40;48.30;;;;;;5057917;28;20465;-67
2023/09/25 12:52:53;;;;;;;2.00;1.70;;;24.80;50.80;;;;;;5056859;28;21085;-68
2023/09/25 12:55:21;;;;;;;2.07;1.97;;;24.00;53.70;;;;;;5055309;28;20500;-67
2023/09/25 12:57:50;;;;;;;1.90;1.70;;;23.50;61.30;;;;;;5054459;28;20497;-66